createdAt,value
2018-10-11T00:00:26.358Z,28.83
2018-10-11T00:05:19.075Z,28.77
2018-10-11T00:10:11.774Z,30.60
2018-10-11T00:15:04.482Z,27.97
2018-10-11T00:19:57.163Z,29.33
2018-10-11T00:24:49.854Z,29.33
2018-10-11T00:29:42.473Z,30.33
2018-10-11T00:34:35.079Z,30.60
2018-10-11T00:39:27.727Z,29.63
2018-10-11T00:44:20.847Z,29.33
2018-10-11T00:49:13.476Z,30.73
2018-10-11T00:54:06.201Z,29.87
2018-10-11T00:58:58.904Z,30.63
2018-10-11T01:03:51.511Z,31.77
2018-10-11T01:08:44.178Z,30.60
2018-10-11T01:13:36.753Z,30.40
2018-10-11T01:18:29.748Z,30.73
2018-10-11T01:23:22.366Z,30.13
2018-10-11T01:28:14.992Z,30.67
2018-10-11T01:33:07.614Z,31.27
2018-10-11T01:38:00.231Z,31.33
2018-10-11T01:43:03.437Z,30.87
2018-10-11T01:47:56.626Z,29.80
2018-10-11T01:52:49.233Z,31.13
2018-10-11T01:57:41.910Z,31.50
2018-10-11T02:02:34.493Z,28.97
2018-10-11T02:07:27.076Z,30.77
2018-10-11T02:12:19.643Z,30.73
2018-10-11T02:17:12.334Z,31.33
2018-10-11T02:22:04.949Z,29.87
2018-10-11T02:26:57.561Z,30.30
2018-10-11T02:31:50.201Z,29.80
2018-10-11T02:36:42.828Z,29.80
2018-10-11T02:41:35.482Z,30.00
2018-10-11T02:46:28.086Z,29.63
2018-10-11T02:51:20.701Z,29.00
2018-10-11T02:56:13.394Z,30.53
2018-10-11T03:01:07.037Z,30.13
2018-10-11T03:06:00.561Z,30.63
2018-10-11T03:10:53.213Z,29.60
2018-10-11T03:15:45.865Z,28.97
2018-10-11T03:20:39.338Z,29.73
2018-10-11T03:25:32.005Z,30.47
2018-10-11T03:30:24.656Z,28.67
2018-10-11T03:35:17.278Z,30.97
2018-10-11T03:40:09.910Z,30.57
2018-10-11T03:45:02.562Z,28.70
2018-10-11T03:49:55.219Z,28.03
2018-10-11T03:54:47.795Z,28.53
2018-10-11T03:59:40.535Z,28.00
2018-10-11T04:04:33.141Z,28.87
2018-10-11T04:09:25.921Z,28.17
2018-10-11T04:14:18.658Z,28.77
2018-10-11T04:19:11.382Z,27.43
2018-10-11T04:24:03.983Z,28.23
2018-10-11T04:28:56.669Z,27.67
2018-10-11T04:33:49.309Z,26.70
2018-10-11T04:38:41.945Z,27.37
2018-10-11T04:43:34.581Z,27.93
2018-10-11T04:48:27.394Z,29.90
2018-10-11T04:53:20.031Z,29.27
2018-10-11T04:58:12.701Z,28.53
2018-10-11T05:03:06.003Z,28.30
2018-10-11T05:07:58.634Z,28.03
2018-10-11T05:12:51.369Z,27.87
2018-10-11T05:17:45.409Z,27.40
2018-10-11T05:22:38.041Z,26.43
2018-10-11T05:27:30.739Z,28.27
2018-10-11T05:37:31.319Z,26.73
2018-10-11T05:42:24.071Z,26.30
2018-10-11T05:47:16.812Z,26.03
2018-10-11T05:52:09.549Z,27.10
2018-10-11T05:57:02.242Z,27.27
2018-10-11T06:01:54.934Z,27.03
2018-10-11T06:06:48.315Z,25.77
2018-10-11T06:11:40.999Z,26.73
2018-10-11T06:16:33.825Z,26.57
2018-10-11T06:21:26.490Z,25.27
2018-10-11T06:26:19.203Z,24.37
2018-10-11T06:31:11.877Z,25.30
2018-10-11T06:36:04.621Z,24.17
2018-10-11T06:40:57.649Z,24.07
2018-10-11T06:45:50.335Z,25.10
2018-10-11T06:50:43.616Z,23.87
2018-10-11T06:55:36.273Z,23.93
2018-10-11T07:00:28.974Z,24.03
2018-10-11T07:05:21.651Z,24.30
2018-10-11T07:10:14.269Z,24.63
2018-10-11T07:15:07.019Z,22.70
2018-10-11T07:19:59.621Z,22.73
2018-10-11T07:24:52.266Z,21.97
2018-10-11T07:29:44.931Z,22.40
2018-10-11T07:34:37.738Z,22.80
2018-10-11T07:39:30.358Z,22.07
2018-10-11T07:44:23.078Z,22.30
2018-10-11T07:49:15.762Z,20.90
2018-10-11T07:54:08.602Z,20.97
2018-10-11T07:59:01.735Z,19.43
2018-10-11T08:03:54.399Z,20.00
2018-10-11T08:08:47.003Z,20.80
2018-10-11T08:13:39.689Z,20.03
2018-10-11T08:18:32.402Z,20.03
2018-10-11T08:23:25.046Z,19.07
2018-10-11T08:28:17.619Z,19.40
2018-10-11T08:33:10.332Z,18.67
2018-10-11T08:38:03.246Z,18.37
2018-10-11T08:42:55.751Z,18.43
2018-10-11T08:47:48.340Z,18.60
2018-10-11T08:52:40.984Z,18.53
2018-10-11T08:57:33.659Z,18.43
2018-10-11T09:02:26.279Z,18.43
2018-10-11T09:07:18.894Z,19.20
2018-10-11T09:12:11.501Z,18.63
2018-10-11T09:17:04.294Z,18.63
2018-10-11T09:21:56.925Z,19.40
2018-10-11T09:26:49.551Z,18.77
2018-10-11T09:31:42.309Z,18.60
2018-10-11T09:36:35.019Z,18.27
2018-10-11T09:41:27.638Z,18.63
2018-10-11T09:46:20.421Z,18.63
2018-10-11T09:51:13.061Z,17.97
2018-10-11T09:56:05.862Z,17.23
2018-10-11T10:01:04.260Z,17.17
2018-10-11T10:05:56.959Z,16.60
2018-10-11T10:10:49.681Z,15.37
2018-10-11T10:15:42.587Z,16.17
2018-10-11T10:20:35.159Z,15.73
2018-10-11T10:25:28.295Z,15.67
2018-10-11T10:30:26.457Z,15.27
2018-10-11T10:35:19.139Z,16.07
2018-10-11T10:40:11.772Z,14.40
2018-10-11T10:45:05.141Z,15.17
2018-10-11T10:49:57.822Z,14.80
2018-10-11T10:54:50.474Z,15.10
2018-10-11T10:59:43.158Z,14.97
2018-10-11T11:04:35.862Z,15.10
2018-10-11T11:09:28.587Z,15.03
2018-10-11T11:14:21.292Z,14.23
2018-10-11T11:19:14.605Z,15.47
2018-10-11T11:24:07.320Z,15.90
2018-10-11T11:29:00.118Z,14.70
2018-10-11T11:33:52.773Z,15.60
2018-10-11T11:38:45.670Z,15.33
2018-10-11T11:43:38.338Z,15.63
2018-10-11T11:48:30.981Z,15.17
2018-10-11T11:53:23.610Z,15.50
2018-10-11T11:58:16.267Z,14.47
2018-10-11T12:03:08.911Z,15.40
2018-10-11T12:08:01.660Z,14.13
2018-10-11T12:12:55.911Z,14.07
2018-10-11T12:17:48.606Z,14.97
2018-10-11T12:22:41.275Z,13.87
2018-10-11T12:27:33.905Z,14.27
2018-10-11T12:32:26.581Z,14.53
2018-10-11T12:37:19.260Z,13.30
2018-10-11T12:42:12.084Z,13.77
2018-10-11T12:47:04.754Z,14.20
2018-10-11T12:51:57.465Z,13.90
2018-10-11T12:56:50.063Z,14.27
2018-10-11T13:01:42.759Z,14.43
2018-10-11T13:06:35.538Z,14.90
2018-10-11T13:11:28.177Z,13.80
2018-10-11T13:16:20.850Z,13.60
2018-10-11T13:21:13.562Z,13.50
2018-10-11T13:26:06.191Z,13.40
2018-10-11T13:30:58.848Z,14.03
2018-10-11T13:35:51.453Z,14.03
2018-10-11T13:40:44.149Z,13.67
2018-10-11T13:45:36.828Z,13.37
2018-10-11T13:50:29.542Z,12.83
2018-10-11T13:55:22.181Z,13.30
2018-10-11T14:00:15.025Z,12.43
2018-10-11T14:05:07.749Z,13.00
2018-10-11T14:10:00.441Z,12.80
2018-10-11T14:14:53.086Z,12.63
2018-10-11T14:19:45.792Z,12.67
2018-10-11T14:24:38.419Z,12.87
2018-10-11T14:29:31.143Z,13.00
2018-10-11T14:34:23.845Z,12.67
2018-10-11T14:39:16.733Z,12.37
2018-10-11T14:44:09.374Z,12.57
2018-10-11T14:49:02.304Z,11.97
2018-10-11T14:53:58.874Z,11.70
2018-10-11T14:58:47.667Z,12.43
2018-10-11T15:03:40.317Z,13.03
2018-10-11T15:08:32.986Z,12.60
2018-10-11T15:13:25.608Z,11.93
2018-10-11T15:18:18.378Z,12.83
2018-10-11T15:23:11.079Z,12.60
2018-10-11T15:28:03.700Z,13.03
2018-10-11T15:32:56.326Z,12.20
2018-10-11T15:37:48.987Z,12.60
2018-10-11T15:42:41.678Z,12.53
2018-10-11T15:47:34.273Z,12.33
2018-10-11T15:52:26.957Z,12.20
2018-10-11T15:57:19.595Z,12.40
2018-10-11T16:02:12.297Z,12.10
2018-10-11T16:07:05.229Z,13.33
2018-10-11T16:11:57.833Z,12.20
2018-10-11T16:16:50.608Z,13.23
2018-10-11T16:21:43.170Z,12.40
2018-10-11T16:26:35.732Z,13.10
2018-10-11T16:31:28.369Z,13.33
2018-10-11T16:36:21.001Z,13.17
2018-10-11T16:41:13.717Z,12.87
2018-10-11T16:46:06.385Z,13.20
2018-10-11T16:50:58.984Z,13.93
2018-10-11T16:55:51.642Z,14.20
2018-10-11T17:00:44.289Z,13.37
2018-10-11T17:05:36.892Z,13.80
2018-10-11T17:10:29.502Z,14.60
2018-10-11T17:15:22.183Z,14.17
2018-10-11T17:20:14.834Z,14.73
2018-10-11T17:25:07.448Z,14.57
2018-10-11T17:30:00.107Z,15.60
2018-10-11T17:34:52.732Z,14.97
2018-10-11T17:39:45.353Z,15.77
2018-10-11T17:44:37.988Z,15.90
2018-10-11T17:49:30.617Z,16.23
2018-10-11T17:54:23.390Z,15.97
2018-10-11T17:59:15.981Z,15.67
2018-10-11T18:04:08.491Z,16.57
2018-10-11T18:09:01.134Z,17.07
2018-10-11T18:13:53.806Z,15.93
2018-10-11T18:18:46.377Z,18.27
2018-10-11T18:23:39.018Z,15.80
2018-10-11T18:28:31.813Z,16.97
2018-10-11T18:33:24.391Z,16.97
2018-10-11T18:38:16.987Z,16.63
2018-10-11T18:43:09.614Z,15.70
2018-10-11T18:48:02.193Z,15.87
2018-10-11T18:52:54.849Z,15.80
2018-10-11T18:57:47.499Z,16.17
2018-10-11T19:02:40.050Z,16.47
2018-10-11T19:07:32.759Z,16.47
2018-10-11T19:12:25.406Z,16.77
2018-10-11T19:17:17.894Z,16.17
2018-10-11T19:22:10.622Z,16.63
2018-10-11T19:27:03.185Z,16.03
2018-10-11T19:31:55.840Z,16.90
2018-10-11T19:36:48.426Z,16.13
2018-10-11T19:41:41.131Z,15.47
2018-10-11T19:46:33.721Z,16.13
2018-10-11T19:51:26.337Z,15.67
2018-10-11T19:56:19.054Z,15.27
2018-10-11T20:01:11.723Z,15.90
2018-10-11T20:06:04.504Z,16.67
2018-10-11T20:10:57.134Z,15.37
2018-10-11T20:15:49.754Z,15.63
2018-10-11T20:20:42.357Z,16.27
2018-10-11T20:25:35.106Z,16.83
2018-10-11T20:30:27.750Z,15.43
2018-10-11T20:35:20.770Z,15.93
2018-10-11T20:40:13.386Z,15.90
2018-10-11T20:45:06.284Z,15.63
2018-10-11T20:49:58.989Z,15.10
2018-10-11T20:54:51.646Z,14.83
2018-10-11T20:59:44.480Z,15.20
2018-10-11T21:04:37.306Z,15.13
2018-10-11T21:09:29.945Z,14.43
2018-10-11T21:14:22.646Z,14.60
2018-10-11T21:19:15.220Z,14.17
2018-10-11T21:24:07.802Z,15.47
2018-10-11T21:29:00.401Z,14.83
2018-10-11T21:33:53.070Z,14.67
2018-10-11T21:38:45.791Z,14.67
2018-10-11T21:43:38.380Z,14.87
2018-10-11T21:48:31.087Z,14.53
2018-10-11T21:53:23.721Z,14.40
2018-10-11T21:58:16.293Z,14.40
2018-10-11T22:03:08.885Z,13.87
2018-10-11T22:08:01.458Z,14.37
2018-10-11T22:12:54.305Z,14.03
2018-10-11T22:17:46.918Z,14.07
2018-10-11T22:22:43.050Z,14.20
2018-10-11T22:27:36.189Z,14.47
2018-10-11T22:32:28.773Z,13.80
2018-10-11T22:37:21.705Z,13.27
2018-10-11T22:42:14.328Z,14.40
2018-10-11T22:47:06.997Z,13.53
2018-10-11T22:51:59.581Z,13.93
2018-10-11T22:56:52.165Z,13.67
2018-10-11T23:01:44.889Z,13.97
2018-10-11T23:06:37.816Z,13.97
2018-10-11T23:11:30.698Z,14.27
2018-10-11T23:16:23.378Z,14.97
2018-10-11T23:21:15.998Z,14.13
2018-10-11T23:26:08.678Z,13.67
2018-10-11T23:31:01.332Z,14.80
2018-10-11T23:35:53.959Z,14.43
2018-10-11T23:40:46.643Z,14.43
2018-10-11T23:45:39.317Z,14.27
2018-10-11T23:50:31.950Z,14.30
2018-10-11T23:55:24.616Z,14.37
